Fukuei Maru — JD3285 — position and weather

sailwx.info

Track history (hours):
 
Tides and Currents Weather Stations Pressure Air Temp Water Temp Dewpoint Dewpoint Depression Visibility Wind Speed Wind Dir Waves Ship Positions

Fukuei Maru

Last reported at 2017-Dec-16 07:30 UTC. Time now 2017-Dec-18 07:16 UTC.
Position N 34°25' E 134°21'.

Length 58 m; draft 4 m.

Type: Cargo ship. MMSI: 431003166.

Date/timePositionNaut miles runAvg speedWind from/ knotsBaromVisibWave heightAir tempDewpointWater temp
2017-Dec-16 07:30N 34°25' E 134°21'510.3
2017-Dec-16 06:59N 34°27' E 134°27'5 9.8
2017-Dec-16 06:30N 34°29' E 134°32'5 9.9
2017-Dec-16 06:01N 34°31' E 134°38'510.3
2017-Dec-16 05:30N 34°33' E 134°44'510.0
2017-Dec-16 05:00N 34°34' E 134°49'4 8.8
2017-Dec-16 04:30N 34°36' E 134°54'4 8.7
2017-Dec-16 04:00N 34°37' E 134°59'4 7.5
2017-Dec-16 03:30N 34°36' E 135°04'5 9.7
2017-Dec-16 03:01N 34°37' E 135°09'510.3
2017-Dec-16 02:31N 34°38' E 135°16'4 8.1
2017-Dec-16 02:01N 34°42' E 135°16'0 0.4
2017-Dec-16 01:29N 34°42' E 135°16'0 0.0
2017-Dec-16 00:59N 34°42' E 135°16'0 0.0
2017-Dec-16 00:29N 34°42' E 135°16'0 0.1
2017-Dec-15 23:59N 34°42' E 135°16'0 0.1
2017-Dec-15 23:29N 34°42' E 135°16'0 0.0
2017-Dec-15 23:00N 34°42' E 135°16'2 4.5
2017-Dec-15 22:31N 34°40' E 135°15'2 3.5
2017-Dec-15 22:01N 34°39' E 135°17'0 0.0
2017-Dec-15 21:28N 34°39' E 135°17'0 0.0
2017-Dec-15 21:01N 34°39' E 135°17'0 0.0
2017-Dec-15 20:31N 34°39' E 135°17'0 0.0
2017-Dec-15 20:01N 34°39' E 135°17'0 0.0
2017-Dec-15 19:28N 34°39' E 135°17'0 0.0
2017-Dec-15 19:01N 34°39' E 135°17'0 0.0
2017-Dec-15 18:31N 34°39' E 135°17'0 0.0
2017-Dec-15 18:00N 34°39' E 135°17'0 0.0
2017-Dec-15 17:31N 34°39' E 135°17'0 0.0
2017-Dec-15 17:00N 34°39' E 135°17'0 0.0
2017-Dec-15 16:28N 34°39' E 135°17'0 0.0
2017-Dec-15 16:01N 34°39' E 135°17'0 0.0
2017-Dec-15 15:30N 34°39' E 135°17'0 0.0
2017-Dec-15 15:01N 34°39' E 135°17'0 0.0
2017-Dec-15 14:31N 34°39' E 135°17'0 0.0
2017-Dec-15 14:01N 34°39' E 135°17'0 0.0
2017-Dec-15 13:31N 34°39' E 135°17'0 0.0
2017-Dec-15 13:01N 34°39' E 135°17'0 0.0
2017-Dec-15 12:30N 34°39' E 135°17'0 0.0
2017-Dec-15 12:00N 34°39' E 135°17'0 0.0
2017-Dec-15 11:28N 34°39' E 135°17'0 0.0
2017-Dec-15 11:01N 34°39' E 135°17'0 0.0
2017-Dec-15 10:30N 34°39' E 135°17'0 0.1
2017-Dec-15 09:58N 34°39' E 135°17'0 0.0
2017-Dec-15 09:28N 34°39' E 135°17'0 0.1
2017-Dec-15 09:01N 34°39' E 135°17'0 0.6
2017-Dec-15 08:30N 34°39' E 135°17'510.3
2017-Dec-15 08:01N 34°37' E 135°12'611.5
2017-Dec-15 07:30N 34°35' E 135°05'510.9
2017-Dec-15 07:01N 34°37' E 134°59'611.8
2017-Dec-15 06:31N 34°34' E 134°53'611.4
2017-Dec-15 06:00N 34°32' E 134°46'611.3
2017-Dec-15 05:31N 34°30' E 134°40'14 0.8
2017-Dec-14 12:20N 34°26' E 134°24'410.7
2017-Dec-14 11:59N 34°28' E 134°28'510.9
2017-Dec-14 11:30N 34°29' E 134°34'611.1
2017-Dec-14 11:00N 34°31' E 134°40'611.3
2017-Dec-14 10:30N 34°33' E 134°47'612.2
2017-Dec-14 10:00N 34°36' E 134°54'612.3
2017-Dec-14 09:31N 34°38' E 135°00'611.5
2017-Dec-14 09:00N 34°36' E 135°07'511.0
2017-Dec-14 08:30N 34°37' E 135°14'510.0
2017-Dec-14 08:01N 34°41' E 135°18'2 3.6
2017-Dec-14 07:30N 34°42' E 135°18'0 0.0
2017-Dec-14 06:59N 34°42' E 135°18'0 0.0
2017-Dec-14 06:29N 34°42' E 135°18'0 0.0
2017-Dec-14 05:59N 34°42' E 135°18'0 0.0
2017-Dec-14 05:29N 34°42' E 135°18'0 0.0
2017-Dec-14 04:59N 34°42' E 135°18'0 0.0
2017-Dec-14 04:29N 34°42' E 135°18'0 0.0
2017-Dec-14 03:59N 34°42' E 135°18'0 0.0
2017-Dec-14 03:30N 34°42' E 135°18'5 9.1
2017-Dec-14 03:00N 34°38' E 135°18'510.8
2017-Dec-14 02:30N 34°33' E 135°14'510.5
2017-Dec-14 02:00N 34°29' E 135°11'510.4
2017-Dec-14 01:30N 34°24' E 135°08'510.2
2017-Dec-14 01:00N 34°20' E 135°05'5 9.0
2017-Dec-14 00:30N 34°15' E 135°03'510.6
2017-Dec-14 00:00N 34°10' E 135°02'510.2
2017-Dec-13 23:30N 34°05' E 135°02'510.4
2017-Dec-13 23:00N 33°60' E 135°02'95 6.9
2017-Dec-13 09:12N 34°29' E 136°52'211.8
2017-Dec-13 09:00N 34°31' E 136°50'5 9.6
2017-Dec-13 08:29N 34°35' E 136°48'611.4
2017-Dec-13 08:00N 34°41' E 136°47'611.7
2017-Dec-13 07:30N 34°46' E 136°45'611.3
2017-Dec-13 07:00N 34°52' E 136°45'611.3
2017-Dec-13 06:30N 34°57' E 136°47'611.2
2017-Dec-13 06:00N 35°02' E 136°51'3 5.9
2017-Dec-13 05:30N 35°05' E 136°52'0 0.0
2017-Dec-13 05:00N 35°05' E 136°52'0 0.0
2017-Dec-13 04:30N 35°05' E 136°52'0 0.0
2017-Dec-13 04:00N 35°05' E 136°52'0 0.0
2017-Dec-13 03:30N 35°05' E 136°52'0 0.0
2017-Dec-13 03:00N 35°05' E 136°52'0 0.0
2017-Dec-13 02:30N 35°05' E 136°52'0 0.0
2017-Dec-13 02:00N 35°05' E 136°52'0 0.0
2017-Dec-13 01:30N 35°05' E 136°52'0 0.0
2017-Dec-13 01:00N 35°05' E 136°52'0 0.0
2017-Dec-13 00:30N 35°05' E 136°52'0 0.0
2017-Dec-13 00:00N 35°05' E 136°52'0 0.0
2017-Dec-12 23:30N 35°05' E 136°52'0 0.0
2017-Dec-12 23:00N 35°05' E 136°52'0 0.8
2017-Dec-12 22:28N 35°05' E 136°53'0 0.0
2017-Dec-12 21:58N 35°05' E 136°53'0 0.0
2017-Dec-12 21:28N 35°05' E 136°53'0 0.0
2017-Dec-12 20:58N 35°05' E 136°53'0 0.0
2017-Dec-12 20:28N 35°05' E 136°53'0 0.0
2017-Dec-12 19:58N 35°05' E 136°53'0 0.0
2017-Dec-12 19:28N 35°05' E 136°53'0 0.0
2017-Dec-12 18:58N 35°05' E 136°53'0 0.0
2017-Dec-12 18:28N 35°05' E 136°53'0 0.0
2017-Dec-12 17:58N 35°05' E 136°53'0 0.0
2017-Dec-12 17:29N 35°05' E 136°53'0 0.0
2017-Dec-12 16:58N 35°05' E 136°53'0 0.1
2017-Dec-12 16:28N 35°05' E 136°53'2 4.0
2017-Dec-12 16:00N 35°03' E 136°52'510.7
2017-Dec-12 15:30N 34°58' E 136°48'510.3
2017-Dec-12 15:00N 34°53' E 136°47'510.5
2017-Dec-12 14:30N 34°48' E 136°47'1310.3
2017-Dec-12 13:17N 34°35' E 136°48'310.3
2017-Dec-12 12:58N 34°32' E 136°48'97 7.3
2017-Dec-11 23:43N 33°53' E 135°01'311.8
2017-Dec-11 23:26N 33°55' E 134°58'611.6
2017-Dec-11 22:57N 33°59' E 134°54'511.3
2017-Dec-11 22:30N 34°03' E 134°50'611.8
2017-Dec-11 22:00N 34°07' E 134°45'612.0
2017-Dec-11 21:29N 34°12' E 134°41'612.1
2017-Dec-11 20:57N 34°16' E 134°35'511.3
2017-Dec-11 20:30N 34°18' E 134°29'611.3
2017-Dec-11 19:56N 34°21' E 134°22'83 9.8
2017-Dec-11 11:32N 34°04' E 132°44'0 9.9
2017-Dec-11 11:30N 34°03' E 132°43'510.3
2017-Dec-11 11:00N 34°01' E 132°38'7 9.8
2017-Dec-11 10:20N 33°57' E 132°32'4 9.8
2017-Dec-11 09:57N 33°54' E 132°29'610.3
2017-Dec-11 09:21N 33°50' E 132°23'410.5
2017-Dec-11 08:58N 33°50' E 132°18'510.8
2017-Dec-11 08:29N 33°50' E 132°12'5 9.8
2017-Dec-11 07:59N 33°51' E 132°06'1410.9
2017-Dec-11 06:42N 33°55' E 131°50'310.6
2017-Dec-11 06:28N 33°56' E 131°48'5 9.6
2017-Dec-11 05:59N 34°00' E 131°45'4 0.5
2017-Dec-10 22:33N 34°03' E 131°48'0 0.9
2017-Dec-10 22:30N 34°03' E 131°48'4 7.5
2017-Dec-10 22:00N 34°01' E 131°44'3 0.1
2017-Dec-08 23:38N 34°04' E 131°45'1 2.4
2017-Dec-08 23:22N 34°04' E 131°45'3 7.6
2017-Dec-08 23:01N 34°01' E 131°44'2 1.0
2017-Dec-08 21:07N 34°02' E 131°46'0 0.0
2017-Dec-08 19:19N 34°02' E 131°46'0 0.0
2017-Dec-08 16:37N 34°02' E 131°46'0 0.1
2017-Dec-08 15:43N 34°02' E 131°46'0 0.1
2017-Dec-08 15:19N 34°02' E 131°46'0 0.0
2017-Dec-08 13:55N 34°02' E 131°46'0 0.0
2017-Dec-08 13:01N 34°02' E 131°46'0 0.2
2017-Dec-08 12:55N 34°02' E 131°46'3 7.8
2017-Dec-08 12:31N 33°59' E 131°45'510.5
2017-Dec-08 12:00N 33°55' E 131°49'1310.0
2017-Dec-08 10:43N 33°52' E 132°04'18 9.9
2017-Dec-08 08:53N 33°53' E 132°26'912.1
2017-Dec-08 08:07N 33°59' E 132°34'112.9
2017-Dec-08 08:00N 34°00' E 132°36'77 4.6
2017-Dec-07 15:08N 34°27' E 134°03'1611.3
2017-Dec-07 13:44N 34°25' E 134°23'211.2
2017-Dec-07 13:30N 34°26' E 134°25'611.2
2017-Dec-07 13:00N 34°28' E 134°31'611.1
2017-Dec-07 12:31N 34°31' E 134°38'610.9
2017-Dec-07 12:00N 34°33' E 134°44'611.3
2017-Dec-07 11:30N 34°35' E 134°50'611.1
2017-Dec-07 11:00N 34°37' E 134°56'5 9.4
2017-Dec-07 10:30N 34°37' E 135°02'5 9.7
2017-Dec-07 10:01N 34°36' E 135°08'510.9
2017-Dec-07 09:30N 34°37' E 135°15'510.4
2017-Dec-07 09:01N 34°38' E 135°21'4 8.9
2017-Dec-07 08:30N 34°39' E 135°26'1 2.4
2017-Dec-07 08:00N 34°38' E 135°27'0 0.0
2017-Dec-07 07:26N 34°38' E 135°27'0 0.0
2017-Dec-07 06:59N 34°38' E 135°27'0 0.0
2017-Dec-07 06:29N 34°38' E 135°27'0 0.1
2017-Dec-07 05:59N 34°38' E 135°27'0 0.0
2017-Dec-07 05:29N 34°38' E 135°27'0 0.0
2017-Dec-07 04:59N 34°38' E 135°27'0 0.0
2017-Dec-07 04:20N 34°38' E 135°27'0 0.0
2017-Dec-07 03:59N 34°38' E 135°27'0 0.0
2017-Dec-07 03:29N 34°38' E 135°27'0 0.0
2017-Dec-07 02:59N 34°38' E 135°27'3 5.6
2017-Dec-07 02:31N 34°38' E 135°24'4 7.1
2017-Dec-07 02:01N 34°36' E 135°21'611.1
2017-Dec-07 01:31N 34°35' E 135°14'611.4
2017-Dec-07 01:00N 34°35' E 135°07'4 8.6
2017-Dec-07 00:31N 34°37' E 135°02'3 6.2
2017-Dec-07 00:00N 34°37' E 134°58'4 8.2
2017-Dec-06 23:31N 34°37' E 134°53'5 9.2
2017-Dec-06 23:01N 34°40' E 134°49'510.7
2017-Dec-06 22:30N 34°42' E 134°43'510.5
2017-Dec-06 22:00N 34°46' E 134°38'  
Track history (hours):
 
Tides and Currents Weather Stations Pressure Air Temp Water Temp Dewpoint Dewpoint Depression Visibility Wind Speed Wind Dir Waves Ship Positions

Fukuei Maru

Last reported at 2017-Dec-16 07:30 UTC. Time now 2017-Dec-18 07:16 UTC.
Position N 34°25' E 134°21'.

Length 58 m; draft 4 m.

Type: Cargo ship. MMSI: 431003166.

Date/timePositionNaut miles runAvg speedWind from/ knotsBaromVisibWave heightAir tempDewpointWater temp
2017-Dec-16 07:30N 34°25' E 134°21'510.3
2017-Dec-16 06:59N 34°27' E 134°27'5 9.8
2017-Dec-16 06:30N 34°29' E 134°32'5 9.9
2017-Dec-16 06:01N 34°31' E 134°38'510.3
2017-Dec-16 05:30N 34°33' E 134°44'510.0
2017-Dec-16 05:00N 34°34' E 134°49'4 8.8
2017-Dec-16 04:30N 34°36' E 134°54'4 8.7
2017-Dec-16 04:00N 34°37' E 134°59'4 7.5
2017-Dec-16 03:30N 34°36' E 135°04'5 9.7
2017-Dec-16 03:01N 34°37' E 135°09'510.3
2017-Dec-16 02:31N 34°38' E 135°16'4 8.1
2017-Dec-16 02:01N 34°42' E 135°16'0 0.4
2017-Dec-16 01:29N 34°42' E 135°16'0 0.0
2017-Dec-16 00:59N 34°42' E 135°16'0 0.0
2017-Dec-16 00:29N 34°42' E 135°16'0 0.1
2017-Dec-15 23:59N 34°42' E 135°16'0 0.1
2017-Dec-15 23:29N 34°42' E 135°16'0 0.0
2017-Dec-15 23:00N 34°42' E 135°16'2 4.5
2017-Dec-15 22:31N 34°40' E 135°15'2 3.5
2017-Dec-15 22:01N 34°39' E 135°17'0 0.0
2017-Dec-15 21:28N 34°39' E 135°17'0 0.0
2017-Dec-15 21:01N 34°39' E 135°17'0 0.0
2017-Dec-15 20:31N 34°39' E 135°17'0 0.0
2017-Dec-15 20:01N 34°39' E 135°17'0 0.0
2017-Dec-15 19:28N 34°39' E 135°17'0 0.0
2017-Dec-15 19:01N 34°39' E 135°17'0 0.0
2017-Dec-15 18:31N 34°39' E 135°17'0 0.0
2017-Dec-15 18:00N 34°39' E 135°17'0 0.0
2017-Dec-15 17:31N 34°39' E 135°17'0 0.0
2017-Dec-15 17:00N 34°39' E 135°17'0 0.0
2017-Dec-15 16:28N 34°39' E 135°17'0 0.0
2017-Dec-15 16:01N 34°39' E 135°17'0 0.0
2017-Dec-15 15:30N 34°39' E 135°17'0 0.0
2017-Dec-15 15:01N 34°39' E 135°17'0 0.0
2017-Dec-15 14:31N 34°39' E 135°17'0 0.0
2017-Dec-15 14:01N 34°39' E 135°17'0 0.0
2017-Dec-15 13:31N 34°39' E 135°17'0 0.0
2017-Dec-15 13:01N 34°39' E 135°17'0 0.0
2017-Dec-15 12:30N 34°39' E 135°17'0 0.0
2017-Dec-15 12:00N 34°39' E 135°17'0 0.0
2017-Dec-15 11:28N 34°39' E 135°17'0 0.0
2017-Dec-15 11:01N 34°39' E 135°17'0 0.0
2017-Dec-15 10:30N 34°39' E 135°17'0 0.1
2017-Dec-15 09:58N 34°39' E 135°17'0 0.0
2017-Dec-15 09:28N 34°39' E 135°17'0 0.1
2017-Dec-15 09:01N 34°39' E 135°17'0 0.6
2017-Dec-15 08:30N 34°39' E 135°17'510.3
2017-Dec-15 08:01N 34°37' E 135°12'611.5
2017-Dec-15 07:30N 34°35' E 135°05'510.9
2017-Dec-15 07:01N 34°37' E 134°59'611.8
2017-Dec-15 06:31N 34°34' E 134°53'611.4
2017-Dec-15 06:00N 34°32' E 134°46'611.3
2017-Dec-15 05:31N 34°30' E 134°40'14 0.8
2017-Dec-14 12:20N 34°26' E 134°24'410.7
2017-Dec-14 11:59N 34°28' E 134°28'510.9
2017-Dec-14 11:30N 34°29' E 134°34'611.1
2017-Dec-14 11:00N 34°31' E 134°40'611.3
2017-Dec-14 10:30N 34°33' E 134°47'612.2
2017-Dec-14 10:00N 34°36' E 134°54'612.3
2017-Dec-14 09:31N 34°38' E 135°00'611.5
2017-Dec-14 09:00N 34°36' E 135°07'511.0
2017-Dec-14 08:30N 34°37' E 135°14'510.0
2017-Dec-14 08:01N 34°41' E 135°18'2 3.6
2017-Dec-14 07:30N 34°42' E 135°18'0 0.0
2017-Dec-14 06:59N 34°42' E 135°18'0 0.0
2017-Dec-14 06:29N 34°42' E 135°18'0 0.0
2017-Dec-14 05:59N 34°42' E 135°18'0 0.0
2017-Dec-14 05:29N 34°42' E 135°18'0 0.0
2017-Dec-14 04:59N 34°42' E 135°18'0 0.0
2017-Dec-14 04:29N 34°42' E 135°18'0 0.0
2017-Dec-14 03:59N 34°42' E 135°18'0 0.0
2017-Dec-14 03:30N 34°42' E 135°18'5 9.1
2017-Dec-14 03:00N 34°38' E 135°18'510.8
2017-Dec-14 02:30N 34°33' E 135°14'510.5
2017-Dec-14 02:00N 34°29' E 135°11'510.4
2017-Dec-14 01:30N 34°24' E 135°08'510.2
2017-Dec-14 01:00N 34°20' E 135°05'5 9.0
2017-Dec-14 00:30N 34°15' E 135°03'510.6
2017-Dec-14 00:00N 34°10' E 135°02'510.2
2017-Dec-13 23:30N 34°05' E 135°02'510.4
2017-Dec-13 23:00N 33°60' E 135°02'95 6.9
2017-Dec-13 09:12N 34°29' E 136°52'211.8
2017-Dec-13 09:00N 34°31' E 136°50'5 9.6
2017-Dec-13 08:29N 34°35' E 136°48'611.4
2017-Dec-13 08:00N 34°41' E 136°47'611.7
2017-Dec-13 07:30N 34°46' E 136°45'611.3
2017-Dec-13 07:00N 34°52' E 136°45'611.3
2017-Dec-13 06:30N 34°57' E 136°47'611.2
2017-Dec-13 06:00N 35°02' E 136°51'3 5.9
2017-Dec-13 05:30N 35°05' E 136°52'0 0.0
2017-Dec-13 05:00N 35°05' E 136°52'0 0.0
2017-Dec-13 04:30N 35°05' E 136°52'0 0.0
2017-Dec-13 04:00N 35°05' E 136°52'0 0.0
2017-Dec-13 03:30N 35°05' E 136°52'0 0.0
2017-Dec-13 03:00N 35°05' E 136°52'0 0.0
2017-Dec-13 02:30N 35°05' E 136°52'0 0.0
2017-Dec-13 02:00N 35°05' E 136°52'0 0.0
2017-Dec-13 01:30N 35°05' E 136°52'0 0.0
2017-Dec-13 01:00N 35°05' E 136°52'0 0.0
2017-Dec-13 00:30N 35°05' E 136°52'0 0.0
2017-Dec-13 00:00N 35°05' E 136°52'0 0.0
2017-Dec-12 23:30N 35°05' E 136°52'0 0.0
2017-Dec-12 23:00N 35°05' E 136°52'0 0.8
2017-Dec-12 22:28N 35°05' E 136°53'0 0.0
2017-Dec-12 21:58N 35°05' E 136°53'0 0.0
2017-Dec-12 21:28N 35°05' E 136°53'0 0.0
2017-Dec-12 20:58N 35°05' E 136°53'0 0.0
2017-Dec-12 20:28N 35°05' E 136°53'0 0.0
2017-Dec-12 19:58N 35°05' E 136°53'0 0.0
2017-Dec-12 19:28N 35°05' E 136°53'0 0.0
2017-Dec-12 18:58N 35°05' E 136°53'0 0.0
2017-Dec-12 18:28N 35°05' E 136°53'0 0.0
2017-Dec-12 17:58N 35°05' E 136°53'0 0.0
2017-Dec-12 17:29N 35°05' E 136°53'0 0.0
2017-Dec-12 16:58N 35°05' E 136°53'0 0.1
2017-Dec-12 16:28N 35°05' E 136°53'2 4.0
2017-Dec-12 16:00N 35°03' E 136°52'510.7
2017-Dec-12 15:30N 34°58' E 136°48'510.3
2017-Dec-12 15:00N 34°53' E 136°47'510.5
2017-Dec-12 14:30N 34°48' E 136°47'1310.3
2017-Dec-12 13:17N 34°35' E 136°48'310.3
2017-Dec-12 12:58N 34°32' E 136°48'97 7.3
2017-Dec-11 23:43N 33°53' E 135°01'311.8
2017-Dec-11 23:26N 33°55' E 134°58'611.6
2017-Dec-11 22:57N 33°59' E 134°54'511.3
2017-Dec-11 22:30N 34°03' E 134°50'611.8
2017-Dec-11 22:00N 34°07' E 134°45'612.0
2017-Dec-11 21:29N 34°12' E 134°41'612.1
2017-Dec-11 20:57N 34°16' E 134°35'511.3
2017-Dec-11 20:30N 34°18' E 134°29'611.3
2017-Dec-11 19:56N 34°21' E 134°22'83 9.8
2017-Dec-11 11:32N 34°04' E 132°44'0 9.9
2017-Dec-11 11:30N 34°03' E 132°43'510.3
2017-Dec-11 11:00N 34°01' E 132°38'7 9.8
2017-Dec-11 10:20N 33°57' E 132°32'4 9.8
2017-Dec-11 09:57N 33°54' E 132°29'610.3
2017-Dec-11 09:21N 33°50' E 132°23'410.5
2017-Dec-11 08:58N 33°50' E 132°18'510.8
2017-Dec-11 08:29N 33°50' E 132°12'5 9.8
2017-Dec-11 07:59N 33°51' E 132°06'1410.9
2017-Dec-11 06:42N 33°55' E 131°50'310.6
2017-Dec-11 06:28N 33°56' E 131°48'5 9.6
2017-Dec-11 05:59N 34°00' E 131°45'4 0.5
2017-Dec-10 22:33N 34°03' E 131°48'0 0.9
2017-Dec-10 22:30N 34°03' E 131°48'4 7.5
2017-Dec-10 22:00N 34°01' E 131°44'3 0.1
2017-Dec-08 23:38N 34°04' E 131°45'1 2.4
2017-Dec-08 23:22N 34°04' E 131°45'3 7.6
2017-Dec-08 23:01N 34°01' E 131°44'2 1.0
2017-Dec-08 21:07N 34°02' E 131°46'0 0.0
2017-Dec-08 19:19N 34°02' E 131°46'0 0.0
2017-Dec-08 16:37N 34°02' E 131°46'0 0.1
2017-Dec-08 15:43N 34°02' E 131°46'0 0.1
2017-Dec-08 15:19N 34°02' E 131°46'0 0.0
2017-Dec-08 13:55N 34°02' E 131°46'0 0.0
2017-Dec-08 13:01N 34°02' E 131°46'0 0.2
2017-Dec-08 12:55N 34°02' E 131°46'3 7.8
2017-Dec-08 12:31N 33°59' E 131°45'510.5
2017-Dec-08 12:00N 33°55' E 131°49'1310.0
2017-Dec-08 10:43N 33°52' E 132°04'18 9.9
2017-Dec-08 08:53N 33°53' E 132°26'912.1
2017-Dec-08 08:07N 33°59' E 132°34'112.9
2017-Dec-08 08:00N 34°00' E 132°36'77 4.6
2017-Dec-07 15:08N 34°27' E 134°03'1611.3
2017-Dec-07 13:44N 34°25' E 134°23'211.2
2017-Dec-07 13:30N 34°26' E 134°25'611.2
2017-Dec-07 13:00N 34°28' E 134°31'611.1
2017-Dec-07 12:31N 34°31' E 134°38'610.9
2017-Dec-07 12:00N 34°33' E 134°44'611.3
2017-Dec-07 11:30N 34°35' E 134°50'611.1
2017-Dec-07 11:00N 34°37' E 134°56'5 9.4
2017-Dec-07 10:30N 34°37' E 135°02'5 9.7
2017-Dec-07 10:01N 34°36' E 135°08'510.9
2017-Dec-07 09:30N 34°37' E 135°15'510.4
2017-Dec-07 09:01N 34°38' E 135°21'4 8.9
2017-Dec-07 08:30N 34°39' E 135°26'1 2.4
2017-Dec-07 08:00N 34°38' E 135°27'0 0.0
2017-Dec-07 07:26N 34°38' E 135°27'0 0.0
2017-Dec-07 06:59N 34°38' E 135°27'0 0.0
2017-Dec-07 06:29N 34°38' E 135°27'0 0.1
2017-Dec-07 05:59N 34°38' E 135°27'0 0.0
2017-Dec-07 05:29N 34°38' E 135°27'0 0.0
2017-Dec-07 04:59N 34°38' E 135°27'0 0.0
2017-Dec-07 04:20N 34°38' E 135°27'0 0.0
2017-Dec-07 03:59N 34°38' E 135°27'0 0.0
2017-Dec-07 03:29N 34°38' E 135°27'0 0.0
2017-Dec-07 02:59N 34°38' E 135°27'3 5.6
2017-Dec-07 02:31N 34°38' E 135°24'4 7.1
2017-Dec-07 02:01N 34°36' E 135°21'611.1
2017-Dec-07 01:31N 34°35' E 135°14'611.4
2017-Dec-07 01:00N 34°35' E 135°07'4 8.6
2017-Dec-07 00:31N 34°37' E 135°02'3 6.2
2017-Dec-07 00:00N 34°37' E 134°58'4 8.2
2017-Dec-06 23:31N 34°37' E 134°53'5 9.2
2017-Dec-06 23:01N 34°40' E 134°49'510.7
2017-Dec-06 22:30N 34°42' E 134°43'510.5
2017-Dec-06 22:00N 34°46' E 134°38'  

Dump ship's entire track history